sensor_id;sensor_type;location;lat;lon;timestamp;pressure;altitude;pressure_sealevel;temperature;humidity
59443;BME280;45247;47.466;19.004;2023-04-27T00:00:38;100082.50;;;2.00;100.00
59443;BME280;45247;47.466;19.004;2023-04-27T00:03:07;100080.84;;;1.98;100.00
59443;BME280;45247;47.466;19.004;2023-04-27T00:05:36;100074.00;;;1.92;100.00
59443;BME280;45247;47.466;19.004;2023-04-27T00:08:05;100080.16;;;1.88;100.00
59443;BME280;45247;47.466;19.004;2023-04-27T00:10:33;100071.50;;;1.88;100.00
59443;BME280;45247;47.466;19.004;2023-04-27T00:13:02;100072.41;;;1.87;100.00
59443;BME280;45247;47.466;19.004;2023-04-27T00:15:31;100082.88;;;1.84;100.00
59443;BME280;45247;47.466;19.004;2023-04-27T00:18:00;100081.09;;;1.86;100.00
59443;BME280;45247;47.466;19.004;2023-04-27T00:20:29;100079.31;;;1.88;100.00
59443;BME280;45247;47.466;19.004;2023-04-27T00:22:57;100080.25;;;1.85;100.00
59443;BME280;45247;47.466;19.004;2023-04-27T00:25:26;100079.25;;;1.91;100.00
59443;BME280;45247;47.466;19.004;2023-04-27T00:27:54;100080.97;;;1.92;100.00
59443;BME280;45247;47.466;19.004;2023-04-27T00:30:22;100077.56;;;1.88;100.00
59443;BME280;45247;47.466;19.004;2023-04-27T00:32:52;100086.19;;;1.92;100.00
59443;BME280;45247;47.466;19.004;2023-04-27T00:35:20;100084.41;;;1.94;100.00
59443;BME280;45247;47.466;19.004;2023-04-27T00:37:48;100074.00;;;1.94;100.00
59443;BME280;45247;47.466;19.004;2023-04-27T00:40:19;100076.56;;;1.95;100.00
59443;BME280;45247;47.466;19.004;2023-04-27T00:42:47;100080.06;;;1.94;100.00
59443;BME280;45247;47.466;19.004;2023-04-27T00:45:15;100073.16;;;1.93;100.00
59443;BME280;45247;47.466;19.004;2023-04-27T00:47:44;100076.50;;;1.97;100.00
59443;BME280;45247;47.466;19.004;2023-04-27T00:50:14;100058.47;;;1.89;100.00
59443;BME280;45247;47.466;19.004;2023-04-27T00:52:43;100060.28;;;1.86;100.00
59443;BME280;45247;47.466;19.004;2023-04-27T00:55:11;100073.34;;;1.84;100.00
59443;BME280;45247;47.466;19.004;2023-04-27T00:57:39;100075.91;;;1.86;100.00
59443;BME280;45247;47.466;19.004;2023-04-27T01:00:08;100069.09;;;1.80;100.00
59443;BME280;45247;47.466;19.004;2023-04-27T01:02:37;100071.59;;;1.83;100.00
59443;BME280;45247;47.466;19.004;2023-04-27T01:05:07;100068.22;;;1.80;100.00
59443;BME280;45247;47.466;19.004;2023-04-27T01:07:37;100067.34;;;1.81;100.00
59443;BME280;45247;47.466;19.004;2023-04-27T01:10:07;100068.31;;;1.75;100.00
59443;BME280;45247;47.466;19.004;2023-04-27T01:12:35;100071.75;;;1.77;100.00
59443;BME280;45247;47.466;19.004;2023-04-27T01:15:05;100074.44;;;1.72;100.00
59443;BME280;45247;47.466;19.004;2023-04-27T01:17:33;100070.03;;;1.76;100.00
59443;BME280;45247;47.466;19.004;2023-04-27T01:20:02;100067.47;;;1.74;100.00
59443;BME280;45247;47.466;19.004;2023-04-27T01:22:33;100077.88;;;1.74;100.00
59443;BME280;45247;47.466;19.004;2023-04-27T01:25:03;100073.34;;;1.84;100.00
59443;BME280;45247;47.466;19.004;2023-04-27T01:27:32;100083.78;;;1.83;100.00
59443;BME280;45247;47.466;19.004;2023-04-27T01:30:00;100077.91;;;1.73;100.00
59443;BME280;45247;47.466;19.004;2023-04-27T01:32:29;100087.56;;;1.66;100.00
59443;BME280;45247;47.466;19.004;2023-04-27T01:34:57;100086.97;;;1.54;100.00
59443;BME280;45247;47.466;19.004;2023-04-27T01:37:25;100086.19;;;1.48;100.00
59443;BME280;45247;47.466;19.004;2023-04-27T01:39:54;100084.63;;;1.41;100.00
59443;BME280;45247;47.466;19.004;2023-04-27T01:42:23;100092.44;;;1.40;100.00
59443;BME280;45247;47.466;19.004;2023-04-27T01:44:51;100087.28;;;1.37;100.00
59443;BME280;45247;47.466;19.004;2023-04-27T01:47:20;100089.03;;;1.38;100.00
59443;BME280;45247;47.466;19.004;2023-04-27T01:49:48;100095.16;;;1.32;100.00
59443;BME280;45247;47.466;19.004;2023-04-27T01:52:16;100094.44;;;1.25;100.00
59443;BME280;45247;47.466;19.004;2023-04-27T01:54:45;100093.69;;;1.19;100.00
59443;BME280;45247;47.466;19.004;2023-04-27T01:57:13;100100.75;;;1.11;100.00
59443;BME280;45247;47.466;19.004;2023-04-27T01:59:42;100094.78;;;1.07;100.00
59443;BME280;45247;47.466;19.004;2023-04-27T02:02:11;100092.19;;;1.06;100.00
59443;BME280;45247;47.466;19.004;2023-04-27T02:04:39;100092.25;;;1.03;100.00
59443;BME280;45247;47.466;19.004;2023-04-27T02:07:09;100095.78;;;0.98;100.00
59443;BME280;45247;47.466;19.004;2023-04-27T02:09:37;100104.47;;;0.97;100.00
59443;BME280;45247;47.466;19.004;2023-04-27T02:12:05;100094.16;;;0.93;100.00
59443;BME280;45247;47.466;19.004;2023-04-27T02:14:34;100106.41;;;0.86;100.00
59443;BME280;45247;47.466;19.004;2023-04-27T02:17:04;100103.00;;;0.81;100.00
59443;BME280;45247;47.466;19.004;2023-04-27T02:19:32;100110.94;;;0.73;100.00
59443;BME280;45247;47.466;19.004;2023-04-27T02:22:00;100102.25;;;0.74;100.00
59443;BME280;45247;47.466;19.004;2023-04-27T02:24:28;100108.44;;;0.69;100.00
59443;BME280;45247;47.466;19.004;2023-04-27T02:26:57;100110.22;;;0.64;100.00
59443;BME280;45247;47.466;19.004;2023-04-27T02:29:29;100116.31;;;0.61;100.00
59443;BME280;45247;47.466;19.004;2023-04-27T02:31:57;100121.59;;;0.57;100.00
59443;BME280;45247;47.466;19.004;2023-04-27T02:34:27;100124.19;;;0.57;100.00
59443;BME280;45247;47.466;19.004;2023-04-27T02:36:55;100123.34;;;0.55;100.00
59443;BME280;45247;47.466;19.004;2023-04-27T02:39:24;100131.25;;;0.48;100.00
59443;BME280;45247;47.466;19.004;2023-04-27T02:41:52;100123.53;;;0.42;100.00
59443;BME280;45247;47.466;19.004;2023-04-27T02:44:20;100130.34;;;0.49;100.00
59443;BME280;45247;47.466;19.004;2023-04-27T02:46:49;100126.91;;;0.49;100.00
59443;BME280;45247;47.466;19.004;2023-04-27T02:49:17;100126.94;;;0.47;100.00
59443;BME280;45247;47.466;19.004;2023-04-27T02:51:46;100130.38;;;0.46;100.00
59443;BME280;45247;47.466;19.004;2023-04-27T02:54:14;100129.56;;;0.44;100.00
59443;BME280;45247;47.466;19.004;2023-04-27T02:56:42;100128.78;;;0.39;100.00
59443;BME280;45247;47.466;19.004;2023-04-27T02:59:11;100143.47;;;0.40;100.00
59443;BME280;45247;47.466;19.004;2023-04-27T03:01:39;100137.50;;;0.35;100.00
59443;BME280;45247;47.466;19.004;2023-04-27T03:04:08;100147.91;;;0.32;100.00
59443;BME280;45247;47.466;19.004;2023-04-27T03:06:36;100147.94;;;0.29;100.00
59443;BME280;45247;47.466;19.004;2023-04-27T03:09:06;100141.16;;;0.22;100.00
59443;BME280;45247;47.466;19.004;2023-04-27T03:11:36;100147.16;;;0.24;100.00
59443;BME280;45247;47.466;19.004;2023-04-27T03:14:04;100148.94;;;0.20;100.00
59443;BME280;45247;47.466;19.004;2023-04-27T03:16:32;100154.19;;;0.16;100.00
59443;BME280;45247;47.466;19.004;2023-04-27T03:19:01;100147.28;;;0.15;100.00
59443;BME280;45247;47.466;19.004;2023-04-27T03:21:29;100155.09;;;0.12;100.00
59443;BME280;45247;47.466;19.004;2023-04-27T03:23:57;100152.56;;;0.09;100.00
59443;BME280;45247;47.466;19.004;2023-04-27T03:26:27;100157.75;;;0.07;100.00
59443;BME280;45247;47.466;19.004;2023-04-27T03:28:55;100155.97;;;0.14;100.00
59443;BME280;45247;47.466;19.004;2023-04-27T03:31:23;100157.63;;;0.18;100.00
59443;BME280;45247;47.466;19.004;2023-04-27T03:33:51;100161.91;;;0.22;100.00
59443;BME280;45247;47.466;19.004;2023-04-27T03:36:19;100170.50;;;0.27;100.00
59443;BME280;45247;47.466;19.004;2023-04-27T03:38:48;100165.38;;;0.22;100.00
59443;BME280;45247;47.466;19.004;2023-04-27T03:41:16;100164.50;;;0.22;100.00
59443;BME280;45247;47.466;19.004;2023-04-27T03:43:45;100167.94;;;0.24;100.00
59443;BME280;45247;47.466;19.004;2023-04-27T03:46:14;100169.59;;;0.28;100.00
59443;BME280;45247;47.466;19.004;2023-04-27T03:48:43;100174.75;;;0.30;100.00
59443;BME280;45247;47.466;19.004;2023-04-27T03:51:12;100166.97;;;0.30;100.00
59443;BME280;45247;47.466;19.004;2023-04-27T03:53:41;100173.00;;;0.33;100.00
59443;BME280;45247;47.466;19.004;2023-04-27T03:56:10;100173.78;;;0.38;100.00
59443;BME280;45247;47.466;19.004;2023-04-27T03:58:38;100176.31;;;0.44;100.00
59443;BME280;45247;47.466;19.004;2023-04-27T04:01:07;100179.28;;;0.79;100.00
59443;BME280;45247;47.466;19.004;2023-04-27T04:03:36;100181.66;;;1.90;100.00
59443;BME280;45247;47.466;19.004;2023-04-27T04:06:05;100186.22;;;3.35;100.00
59443;BME280;45247;47.466;19.004;2023-04-27T04:08:34;100185.38;;;4.28;100.00
59443;BME280;45247;47.466;19.004;2023-04-27T04:11:02;100190.00;;;5.06;100.00
59443;BME280;45247;47.466;19.004;2023-04-27T04:13:30;100187.16;;;5.38;98.22
59443;BME280;45247;47.466;19.004;2023-04-27T04:16:02;100185.84;;;6.01;92.22
59443;BME280;45247;47.466;19.004;2023-04-27T04:18:33;100183.84;;;6.55;87.10
59443;BME280;45247;47.466;19.004;2023-04-27T04:21:01;100189.84;;;7.02;79.90
59443;BME280;45247;47.466;19.004;2023-04-27T04:23:29;100192.91;;;7.95;74.24
59443;BME280;45247;47.466;19.004;2023-04-27T04:25:58;100189.59;;;8.69;70.41
59443;BME280;45247;47.466;19.004;2023-04-27T04:28:28;100187.25;;;9.70;64.59
59443;BME280;45247;47.466;19.004;2023-04-27T04:30:56;100183.91;;;9.66;63.45
59443;BME280;45247;47.466;19.004;2023-04-27T04:33:24;100195.41;;;10.65;59.60
59443;BME280;45247;47.466;19.004;2023-04-27T04:35:54;100191.97;;;11.86;55.15
59443;BME280;45247;47.466;19.004;2023-04-27T04:38:23;100189.22;;;11.88;52.99
59443;BME280;45247;47.466;19.004;2023-04-27T04:40:51;100176.91;;;11.42;54.46
59443;BME280;45247;47.466;19.004;2023-04-27T04:43:19;100188.47;;;12.00;52.37
59443;BME280;45247;47.466;19.004;2023-04-27T04:45:48;100195.19;;;11.91;52.00
59443;BME280;45247;47.466;19.004;2023-04-27T04:48:16;100195.09;;;11.63;53.19
59443;BME280;45247;47.466;19.004;2023-04-27T04:50:45;100183.22;;;13.11;49.79
59443;BME280;45247;47.466;19.004;2023-04-27T04:53:15;100197.94;;;13.42;49.37
59443;BME280;45247;47.466;19.004;2023-04-27T04:55:43;100197.97;;;13.55;47.98
59443;BME280;45247;47.466;19.004;2023-04-27T04:58:12;100193.53;;;14.70;45.55
59443;BME280;45247;47.466;19.004;2023-04-27T05:00:40;100190.53;;;14.75;44.73
59443;BME280;45247;47.466;19.004;2023-04-27T05:03:08;100190.19;;;15.51;43.60
59443;BME280;45247;47.466;19.004;2023-04-27T05:05:37;100191.53;;;16.60;40.68
59443;BME280;45247;47.466;19.004;2023-04-27T05:08:05;100186.38;;;18.29;37.49
59443;BME280;45247;47.466;19.004;2023-04-27T05:10:35;100190.28;;;19.34;35.80
59443;BME280;45247;47.466;19.004;2023-04-27T05:13:03;100189.72;;;19.31;35.72
59443;BME280;45247;47.466;19.004;2023-04-27T05:15:33;100198.19;;;19.84;34.64
59443;BME280;45247;47.466;19.004;2023-04-27T05:18:01;100196.53;;;21.13;33.16
59443;BME280;45247;47.466;19.004;2023-04-27T05:20:29;100205.13;;;20.89;32.50
59443;BME280;45247;47.466;19.004;2023-04-27T05:22:57;100209.19;;;21.20;32.52
59443;BME280;45247;47.466;19.004;2023-04-27T05:25:25;100211.28;;;21.44;32.41
59443;BME280;45247;47.466;19.004;2023-04-27T05:27:55;100216.31;;;20.84;32.82
59443;BME280;45247;47.466;19.004;2023-04-27T05:30:23;100216.97;;;20.96;32.39
59443;BME280;45247;47.466;19.004;2023-04-27T05:32:51;100214.38;;;20.76;32.00
59443;BME280;45247;47.466;19.004;2023-04-27T05:35:20;100212.78;;;20.84;30.86
59443;BME280;45247;47.466;19.004;2023-04-27T05:37:48;100210.31;;;21.00;31.23
59443;BME280;45247;47.466;19.004;2023-04-27T05:40:16;100224.78;;;21.53;30.83
59443;BME280;45247;47.466;19.004;2023-04-27T05:42:45;100224.69;;;21.80;30.85
59443;BME280;45247;47.466;19.004;2023-04-27T05:45:14;100216.72;;;22.74;29.91
59443;BME280;45247;47.466;19.004;2023-04-27T05:47:43;100220.41;;;21.34;30.86
59443;BME280;45247;47.466;19.004;2023-04-27T05:50:11;100219.69;;;21.49;30.54
59443;BME280;45247;47.466;19.004;2023-04-27T05:52:39;100228.06;;;21.29;31.68
59443;BME280;45247;47.466;19.004;2023-04-27T05:55:08;100227.75;;;21.85;30.70
59443;BME280;45247;47.466;19.004;2023-04-27T05:57:36;100229.19;;;21.97;30.06
59443;BME280;45247;47.466;19.004;2023-04-27T06:00:05;100234.31;;;20.27;31.95
59443;BME280;45247;47.466;19.004;2023-04-27T06:02:38;100236.78;;;19.23;33.51
59443;BME280;45247;47.466;19.004;2023-04-27T06:05:07;100233.13;;;18.23;34.29
59443;BME280;45247;47.466;19.004;2023-04-27T06:07:35;100239.28;;;18.14;34.77
59443;BME280;45247;47.466;19.004;2023-04-27T06:10:05;100236.34;;;17.75;35.96
59443;BME280;45247;47.466;19.004;2023-04-27T06:12:33;100234.00;;;18.02;35.50
59443;BME280;45247;47.466;19.004;2023-04-27T06:15:02;100244.44;;;18.67;34.86
59443;BME280;45247;47.466;19.004;2023-04-27T06:17:34;100243.53;;;17.31;37.21
59443;BME280;45247;47.466;19.004;2023-04-27T06:20:05;100246.94;;;15.39;40.25
59443;BME280;45247;47.466;19.004;2023-04-27T06:22:34;100249.66;;;15.26;43.13
59443;BME280;45247;47.466;19.004;2023-04-27T06:25:03;100244.16;;;16.00;39.67
59443;BME280;45247;47.466;19.004;2023-04-27T06:27:31;100254.25;;;15.48;40.15
59443;BME280;45247;47.466;19.004;2023-04-27T06:30:00;100254.88;;;15.76;39.35
59443;BME280;45247;47.466;19.004;2023-04-27T06:32:28;100257.28;;;15.79;41.37
59443;BME280;45247;47.466;19.004;2023-04-27T06:34:56;100254.38;;;15.47;41.08
59443;BME280;45247;47.466;19.004;2023-04-27T06:37:26;100263.09;;;14.12;44.11
59443;BME280;45247;47.466;19.004;2023-04-27T06:39:54;100262.41;;;14.61;44.80
59443;BME280;45247;47.466;19.004;2023-04-27T06:42:22;100258.34;;;15.28;41.66
59443;BME280;45247;47.466;19.004;2023-04-27T06:44:52;100256.81;;;16.32;40.34
59443;BME280;45247;47.466;19.004;2023-04-27T06:47:21;100253.06;;;16.68;38.54
59443;BME280;45247;47.466;19.004;2023-04-27T06:49:49;100257.19;;;16.94;37.81
59443;BME280;45247;47.466;19.004;2023-04-27T06:52:17;100253.66;;;16.38;34.47
59443;BME280;45247;47.466;19.004;2023-04-27T06:54:47;100250.41;;;15.88;34.56
59443;BME280;45247;47.466;19.004;2023-04-27T06:57:18;100262.25;;;16.19;34.76
59443;BME280;45247;47.466;19.004;2023-04-27T06:59:50;100259.66;;;15.95;34.40
59443;BME280;45247;47.466;19.004;2023-04-27T07:02:22;100263.50;;;15.19;34.55
59443;BME280;45247;47.466;19.004;2023-04-27T07:04:51;100270.59;;;15.31;35.02
59443;BME280;45247;47.466;19.004;2023-04-27T07:07:19;100264.94;;;15.12;36.63
59443;BME280;45247;47.466;19.004;2023-04-27T07:09:49;100267.63;;;14.99;35.98
59443;BME280;45247;47.466;19.004;2023-04-27T07:12:17;100270.59;;;14.94;35.22
59443;BME280;45247;47.466;19.004;2023-04-27T07:14:45;100267.28;;;14.54;35.15
59443;BME280;45247;47.466;19.004;2023-04-27T07:17:16;100265.53;;;14.91;35.35
59443;BME280;45247;47.466;19.004;2023-04-27T07:19:49;100270.63;;;15.18;35.65
59443;BME280;45247;47.466;19.004;2023-04-27T07:22:20;100269.47;;;15.22;35.48
59443;BME280;45247;47.466;19.004;2023-04-27T07:24:49;100282.53;;;14.76;34.78
59443;BME280;45247;47.466;19.004;2023-04-27T07:27:17;100278.50;;;14.83;34.62
59443;BME280;45247;47.466;19.004;2023-04-27T07:29:46;100272.97;;;14.86;34.92
59443;BME280;45247;47.466;19.004;2023-04-27T07:32:14;100281.03;;;14.85;32.66
59443;BME280;45247;47.466;19.004;2023-04-27T07:34:43;100277.44;;;14.73;33.24
59443;BME280;45247;47.466;19.004;2023-04-27T07:37:19;100275.88;;;14.70;35.52
59443;BME280;45247;47.466;19.004;2023-04-27T07:39:50;100267.63;;;13.71;34.18
59443;BME280;45247;47.466;19.004;2023-04-27T07:42:19;100283.91;;;13.65;33.09
59443;BME280;45247;47.466;19.004;2023-04-27T07:44:48;100269.09;;;13.75;32.26
59443;BME280;45247;47.466;19.004;2023-04-27T07:47:17;100274.41;;;13.75;31.90
59443;BME280;45247;47.466;19.004;2023-04-27T07:49:45;100272.22;;;14.08;34.40
59443;BME280;45247;47.466;19.004;2023-04-27T07:52:13;100269.56;;;13.95;32.63
59443;BME280;45247;47.466;19.004;2023-04-27T07:54:42;100267.00;;;13.93;33.90
59443;BME280;45247;47.466;19.004;2023-04-27T07:57:11;100264.69;;;13.62;34.30
59443;BME280;45247;47.466;19.004;2023-04-27T07:59:39;100263.78;;;13.63;34.85
59443;BME280;45247;47.466;19.004;2023-04-27T08:02:08;100269.34;;;13.85;33.86
59443;BME280;45247;47.466;19.004;2023-04-27T08:04:45;100272.38;;;13.39;34.37
59443;BME280;45247;47.466;19.004;2023-04-27T08:07:14;100269.47;;;13.57;34.12
59443;BME280;45247;47.466;19.004;2023-04-27T08:09:43;100278.88;;;13.75;33.71
59443;BME280;45247;47.466;19.004;2023-04-27T08:12:12;100263.00;;;13.61;34.22
59443;BME280;45247;47.466;19.004;2023-04-27T08:14:41;100262.38;;;13.30;34.21
59443;BME280;45247;47.466;19.004;2023-04-27T08:17:09;100270.38;;;13.83;36.27
59443;BME280;45247;47.466;19.004;2023-04-27T08:19:37;100274.00;;;13.94;33.59
59443;BME280;45247;47.466;19.004;2023-04-27T08:22:05;100263.00;;;14.00;33.39
59443;BME280;45247;47.466;19.004;2023-04-27T08:24:34;100264.81;;;14.38;33.92
59443;BME280;45247;47.466;19.004;2023-04-27T08:27:04;100265.00;;;14.86;35.75
59443;BME280;45247;47.466;19.004;2023-04-27T08:29:34;100268.94;;;14.42;33.82
59443;BME280;45247;47.466;19.004;2023-04-27T08:32:03;100274.69;;;14.36;33.20
59443;BME280;45247;47.466;19.004;2023-04-27T08:34:31;100278.28;;;14.10;34.83
59443;BME280;45247;47.466;19.004;2023-04-27T08:36:59;100275.63;;;14.10;33.65
59443;BME280;45247;47.466;19.004;2023-04-27T08:39:30;100280.84;;;14.24;34.30
59443;BME280;45247;47.466;19.004;2023-04-27T08:41:58;100268.31;;;14.13;33.67
59443;BME280;45247;47.466;19.004;2023-04-27T08:44:26;100276.16;;;14.15;33.66
59443;BME280;45247;47.466;19.004;2023-04-27T08:46:56;100275.50;;;13.98;33.97
59443;BME280;45247;47.466;19.004;2023-04-27T08:49:24;100277.91;;;13.76;34.05
59443;BME280;45247;47.466;19.004;2023-04-27T08:51:52;100283.88;;;13.52;34.76
59443;BME280;45247;47.466;19.004;2023-04-27T08:54:20;100273.53;;;13.62;35.18
59443;BME280;45247;47.466;19.004;2023-04-27T08:56:48;100283.75;;;13.81;34.71
59443;BME280;45247;47.466;19.004;2023-04-27T08:59:16;100284.97;;;13.63;34.94
59443;BME280;45247;47.466;19.004;2023-04-27T09:01:45;100276.94;;;13.37;34.81
59443;BME280;45247;47.466;19.004;2023-04-27T09:04:16;100273.06;;;13.56;36.75
59443;BME280;45247;47.466;19.004;2023-04-27T09:06:45;100269.34;;;13.98;36.74
59443;BME280;45247;47.466;19.004;2023-04-27T09:09:21;100252.59;;;14.23;37.59
59443;BME280;45247;47.466;19.004;2023-04-27T09:11:50;100261.22;;;14.39;37.32
59443;BME280;45247;47.466;19.004;2023-04-27T09:14:19;100258.41;;;14.79;35.94
59443;BME280;45247;47.466;19.004;2023-04-27T09:16:53;100260.41;;;15.25;36.66
59443;BME280;45247;47.466;19.004;2023-04-27T09:19:25;100252.25;;;15.63;37.35
59443;BME280;45247;47.466;19.004;2023-04-27T09:22:04;100253.75;;;16.02;33.73
59443;BME280;45247;47.466;19.004;2023-04-27T09:24:34;100252.69;;;16.39;36.58
59443;BME280;45247;47.466;19.004;2023-04-27T09:27:05;100253.88;;;16.12;33.98
59443;BME280;45247;47.466;19.004;2023-04-27T09:29:35;100252.81;;;15.80;35.22
59443;BME280;45247;47.466;19.004;2023-04-27T09:32:14;100253.97;;;15.99;34.50
59443;BME280;45247;47.466;19.004;2023-04-27T09:34:45;100245.34;;;15.61;35.47
59443;BME280;45247;47.466;19.004;2023-04-27T09:37:13;100245.69;;;15.56;35.45
59443;BME280;45247;47.466;19.004;2023-04-27T09:39:41;100241.06;;;15.71;33.70
59443;BME280;45247;47.466;19.004;2023-04-27T09:42:11;100244.00;;;15.55;33.91
59443;BME280;45247;47.466;19.004;2023-04-27T09:44:39;100237.50;;;15.35;35.01
59443;BME280;45247;47.466;19.004;2023-04-27T09:47:08;100246.75;;;15.06;34.60
59443;BME280;45247;47.466;19.004;2023-04-27T09:49:37;100238.41;;;15.23;35.50
59443;BME280;45247;47.466;19.004;2023-04-27T09:52:06;100241.66;;;15.02;35.21
59443;BME280;45247;47.466;19.004;2023-04-27T09:54:35;100236.19;;;15.17;36.35
59443;BME280;45247;47.466;19.004;2023-04-27T09:57:14;100235.22;;;15.66;34.69
59443;BME280;45247;47.466;19.004;2023-04-27T09:59:57;100232.59;;;16.23;35.83
59443;BME280;45247;47.466;19.004;2023-04-27T10:02:29;100225.19;;;16.61;33.74
59443;BME280;45247;47.466;19.004;2023-04-27T10:05:29;100218.06;;;16.61;34.04
59443;BME280;45247;47.466;19.004;2023-04-27T10:08:04;100220.22;;;16.22;33.69
59443;BME280;45247;47.466;19.004;2023-04-27T10:10:41;100216.66;;;15.88;34.14
59443;BME280;45247;47.466;19.004;2023-04-27T10:13:19;100225.06;;;15.12;33.48
59443;BME280;45247;47.466;19.004;2023-04-27T10:15:48;100211.88;;;15.10;35.57
59443;BME280;45247;47.466;19.004;2023-04-27T10:18:28;100207.97;;;15.27;36.25
59443;BME280;45247;47.466;19.004;2023-04-27T10:21:08;100220.06;;;15.31;35.32
59443;BME280;45247;47.466;19.004;2023-04-27T10:23:46;100212.84;;;15.33;33.82
59443;BME280;45247;47.466;19.004;2023-04-27T10:26:22;100208.72;;;15.29;34.81
59443;BME280;45247;47.466;19.004;2023-04-27T10:28:58;100220.41;;;15.02;33.49
59443;BME280;45247;47.466;19.004;2023-04-27T10:31:31;100211.31;;;14.81;34.96
59443;BME280;45247;47.466;19.004;2023-04-27T10:34:07;100206.75;;;15.07;36.50
59443;BME280;45247;47.466;19.004;2023-04-27T10:36:37;100203.28;;;15.31;35.34
59443;BME280;45247;47.466;19.004;2023-04-27T10:39:18;100217.81;;;15.14;34.13
59443;BME280;45247;47.466;19.004;2023-04-27T10:41:58;100212.09;;;15.07;33.98
59443;BME280;45247;47.466;19.004;2023-04-27T10:44:28;100217.44;;;14.94;33.80
59443;BME280;45247;47.466;19.004;2023-04-27T10:46:57;100212.84;;;15.33;33.81
59443;BME280;45247;47.466;19.004;2023-04-27T10:49:26;100222.44;;;15.71;34.85
59443;BME280;45247;47.466;19.004;2023-04-27T10:51:56;100211.91;;;15.45;33.01
59443;BME280;45247;47.466;19.004;2023-04-27T10:54:27;100224.91;;;14.89;34.09
59443;BME280;45247;47.466;19.004;2023-04-27T10:57:01;100217.00;;;14.64;33.80
59443;BME280;45247;47.466;19.004;2023-04-27T10:59:29;100210.53;;;14.42;33.76
59443;BME280;45247;47.466;19.004;2023-04-27T11:01:58;100215.44;;;14.48;34.50
59443;BME280;45247;47.466;19.004;2023-04-27T11:04:35;100221.81;;;14.08;35.09
59443;BME280;45247;47.466;19.004;2023-04-27T11:07:04;100213.31;;;14.15;35.48
59443;BME280;45247;47.466;19.004;2023-04-27T11:09:33;100203.88;;;13.98;35.93
59443;BME280;45247;47.466;19.004;2023-04-27T11:12:05;100208.19;;;13.74;35.79
59443;BME280;45247;47.466;19.004;2023-04-27T11:14:34;100211.16;;;13.82;36.22
59443;BME280;45247;47.466;19.004;2023-04-27T11:17:03;100209.25;;;13.59;35.73
59443;BME280;45247;47.466;19.004;2023-04-27T11:19:32;100205.44;;;13.63;35.87
59443;BME280;45247;47.466;19.004;2023-04-27T11:22:03;100208.13;;;14.39;34.76
59443;BME280;45247;47.466;19.004;2023-04-27T11:24:33;100203.22;;;14.08;35.48
59443;BME280;45247;47.466;19.004;2023-04-27T11:27:01;100211.56;;;13.63;34.89
59443;BME280;45247;47.466;19.004;2023-04-27T11:29:37;100207.16;;;13.89;35.43
59443;BME280;45247;47.466;19.004;2023-04-27T11:32:05;100206.31;;;14.40;34.98
59443;BME280;45247;47.466;19.004;2023-04-27T11:34:33;100205.13;;;14.57;34.42
59443;BME280;45247;47.466;19.004;2023-04-27T11:37:05;100193.94;;;14.64;35.24
59443;BME280;45247;47.466;19.004;2023-04-27T11:39:38;100189.16;;;14.69;35.73
59443;BME280;45247;47.466;19.004;2023-04-27T11:42:14;100186.25;;;14.48;35.08
59443;BME280;45247;47.466;19.004;2023-04-27T11:44:51;100199.06;;;14.55;35.30
59443;BME280;45247;47.466;19.004;2023-04-27T11:47:20;100193.44;;;14.21;35.59
59443;BME280;45247;47.466;19.004;2023-04-27T11:49:49;100199.19;;;13.76;35.46
59443;BME280;45247;47.466;19.004;2023-04-27T11:52:18;100202.44;;;13.55;37.56
59443;BME280;45247;47.466;19.004;2023-04-27T11:54:49;100203.44;;;13.39;38.27
59443;BME280;45247;47.466;19.004;2023-04-27T11:57:23;100207.75;;;13.55;38.02
59443;BME280;45247;47.466;19.004;2023-04-27T11:59:53;100202.50;;;13.93;36.88
59443;BME280;45247;47.466;19.004;2023-04-27T12:02:22;100191.84;;;14.44;37.40
59443;BME280;45247;47.466;19.004;2023-04-27T12:04:50;100191.53;;;14.85;35.24
59443;BME280;45247;47.466;19.004;2023-04-27T12:07:19;100188.34;;;14.93;33.97
59443;BME280;45247;47.466;19.004;2023-04-27T12:09:48;100196.06;;;14.46;35.24
59443;BME280;45247;47.466;19.004;2023-04-27T12:12:16;100202.16;;;13.72;35.97
59443;BME280;45247;47.466;19.004;2023-04-27T12:14:47;100201.81;;;13.64;36.81
59443;BME280;45247;47.466;19.004;2023-04-27T12:17:16;100193.91;;;13.89;36.26
59443;BME280;45247;47.466;19.004;2023-04-27T12:19:44;100191.75;;;13.69;36.15
59443;BME280;45247;47.466;19.004;2023-04-27T12:22:12;100191.44;;;13.86;37.26
59443;BME280;45247;47.466;19.004;2023-04-27T12:24:41;100195.34;;;13.68;36.93
59443;BME280;45247;47.466;19.004;2023-04-27T12:27:11;100191.94;;;13.66;37.58
59443;BME280;45247;47.466;19.004;2023-04-27T12:29:39;100187.94;;;14.11;37.50
59443;BME280;45247;47.466;19.004;2023-04-27T12:32:07;100179.22;;;14.47;36.77
59443;BME280;45247;47.466;19.004;2023-04-27T12:34:35;100177.81;;;14.55;37.11
59443;BME280;45247;47.466;19.004;2023-04-27T12:37:05;100182.72;;;14.61;37.05
59443;BME280;45247;47.466;19.004;2023-04-27T12:39:33;100188.38;;;14.80;36.17
59443;BME280;45247;47.466;19.004;2023-04-27T12:42:01;100185.16;;;14.51;35.72
59443;BME280;45247;47.466;19.004;2023-04-27T12:44:31;100190.44;;;14.64;35.00
59443;BME280;45247;47.466;19.004;2023-04-27T12:46:59;100182.09;;;14.57;36.12
59443;BME280;45247;47.466;19.004;2023-04-27T12:49:27;100190.56;;;14.62;36.19
59443;BME280;45247;47.466;19.004;2023-04-27T12:51:56;100179.75;;;14.27;35.26